sensor_id;sensor_type;location;lat;lon;timestamp;P1;durP1;ratioP1;P2;durP2;ratioP2
17564;SDS011;62994;52.126;5.596;2023-01-01T00:01:33;11.73;;;7.18;;
17564;SDS011;62994;52.126;5.596;2023-01-01T00:04:04;21.55;;;7.25;;
17564;SDS011;62994;52.126;5.596;2023-01-01T00:06:34;9.98;;;6.88;;
17564;SDS011;62994;52.126;5.596;2023-01-01T00:09:01;15.07;;;7.80;;
17564;SDS011;62994;52.126;5.596;2023-01-01T00:11:46;8.27;;;7.45;;
17564;SDS011;62994;52.126;5.596;2023-01-01T00:14:13;13.35;;;8.50;;
17564;SDS011;62994;52.126;5.596;2023-01-01T00:16:40;14.05;;;9.43;;
17564;SDS011;62994;52.126;5.596;2023-01-01T00:19:07;16.05;;;8.80;;
17564;SDS011;62994;52.126;5.596;2023-01-01T00:21:35;15.25;;;8.98;;
17564;SDS011;62994;52.126;5.596;2023-01-01T00:24:05;13.73;;;8.55;;
17564;SDS011;62994;52.126;5.596;2023-01-01T00:26:32;16.95;;;8.95;;
17564;SDS011;62994;52.126;5.596;2023-01-01T00:28:59;18.83;;;8.05;;
17564;SDS011;62994;52.126;5.596;2023-01-01T00:31:29;15.02;;;9.32;;
17564;SDS011;62994;52.126;5.596;2023-01-01T00:33:56;41.63;;;17.40;;
17564;SDS011;62994;52.126;5.596;2023-01-01T00:36:25;14.15;;;8.93;;
17564;SDS011;62994;52.126;5.596;2023-01-01T00:39:00;13.27;;;8.52;;
17564;SDS011;62994;52.126;5.596;2023-01-01T00:41:27;15.00;;;9.32;;
17564;SDS011;62994;52.126;5.596;2023-01-01T00:43:54;16.17;;;9.73;;
17564;SDS011;62994;52.126;5.596;2023-01-01T00:46:21;11.05;;;7.88;;
17564;SDS011;62994;52.126;5.596;2023-01-01T00:48:50;15.90;;;7.28;;
17564;SDS011;62994;52.126;5.596;2023-01-01T00:51:17;8.77;;;7.43;;
17564;SDS011;62994;52.126;5.596;2023-01-01T00:53:44;16.85;;;7.60;;
17564;SDS011;62994;52.126;5.596;2023-01-01T00:56:12;10.00;;;6.90;;
17564;SDS011;62994;52.126;5.596;2023-01-01T00:58:44;11.88;;;7.03;;
17564;SDS011;62994;52.126;5.596;2023-01-01T01:01:11;14.95;;;7.00;;
17564;SDS011;62994;52.126;5.596;2023-01-01T01:03:44;15.45;;;6.72;;
17564;SDS011;62994;52.126;5.596;2023-01-01T01:06:11;13.70;;;5.88;;
17564;SDS011;62994;52.126;5.596;2023-01-01T01:08:41;7.43;;;5.68;;
17564;SDS011;62994;52.126;5.596;2023-01-01T01:11:10;11.63;;;5.47;;
17564;SDS011;62994;52.126;5.596;2023-01-01T01:13:41;9.77;;;5.32;;
17564;SDS011;62994;52.126;5.596;2023-01-01T01:16:14;9.45;;;5.80;;
17564;SDS011;62994;52.126;5.596;2023-01-01T01:18:43;13.43;;;5.65;;
17564;SDS011;62994;52.126;5.596;2023-01-01T01:21:17;6.38;;;4.43;;
17564;SDS011;62994;52.126;5.596;2023-01-01T01:23:51;9.88;;;4.97;;
17564;SDS011;62994;52.126;5.596;2023-01-01T01:26:22;11.05;;;4.45;;
17564;SDS011;62994;52.126;5.596;2023-01-01T01:28:53;6.70;;;4.40;;
17564;SDS011;62994;52.126;5.596;2023-01-01T01:31:22;8.20;;;4.72;;
17564;SDS011;62994;52.126;5.596;2023-01-01T01:33:49;9.73;;;4.53;;
17564;SDS011;62994;52.126;5.596;2023-01-01T01:36:23;8.63;;;3.65;;
17564;SDS011;62994;52.126;5.596;2023-01-01T01:38:51;13.75;;;3.78;;
17564;SDS011;62994;52.126;5.596;2023-01-01T01:41:19;6.05;;;4.05;;
17564;SDS011;62994;52.126;5.596;2023-01-01T01:43:50;10.40;;;4.10;;
17564;SDS011;62994;52.126;5.596;2023-01-01T01:46:21;8.57;;;3.65;;
17564;SDS011;62994;52.126;5.596;2023-01-01T01:48:54;6.22;;;3.00;;
17564;SDS011;62994;52.126;5.596;2023-01-01T01:51:25;8.18;;;3.83;;
17564;SDS011;62994;52.126;5.596;2023-01-01T01:53:56;4.40;;;2.63;;
17564;SDS011;62994;52.126;5.596;2023-01-01T01:56:30;5.28;;;3.08;;
17564;SDS011;62994;52.126;5.596;2023-01-01T01:59:06;5.43;;;2.72;;
17564;SDS011;62994;52.126;5.596;2023-01-01T02:01:33;9.65;;;2.97;;
17564;SDS011;62994;52.126;5.596;2023-01-01T02:04:00;5.05;;;2.92;;
17564;SDS011;62994;52.126;5.596;2023-01-01T02:06:28;7.03;;;3.58;;
17564;SDS011;62994;52.126;5.596;2023-01-01T02:08:58;6.22;;;3.05;;
17564;SDS011;62994;52.126;5.596;2023-01-01T02:11:29;7.05;;;2.75;;
17564;SDS011;62994;52.126;5.596;2023-01-01T02:13:56;8.52;;;2.92;;
17564;SDS011;62994;52.126;5.596;2023-01-01T02:16:26;6.07;;;2.90;;
17564;SDS011;62994;52.126;5.596;2023-01-01T02:19:01;2.63;;;2.25;;
17564;SDS011;62994;52.126;5.596;2023-01-01T02:21:38;4.57;;;2.40;;
17564;SDS011;62994;52.126;5.596;2023-01-01T02:24:24;6.75;;;2.78;;
17564;SDS011;62994;52.126;5.596;2023-01-01T02:27:08;7.70;;;2.80;;
17564;SDS011;62994;52.126;5.596;2023-01-01T02:29:43;12.23;;;3.15;;
17564;SDS011;62994;52.126;5.596;2023-01-01T02:32:16;5.03;;;3.10;;
17564;SDS011;62994;52.126;5.596;2023-01-01T02:34:47;4.30;;;2.38;;
17564;SDS011;62994;52.126;5.596;2023-01-01T02:37:18;4.60;;;2.78;;
17564;SDS011;62994;52.126;5.596;2023-01-01T02:39:49;5.63;;;2.47;;
17564;SDS011;62994;52.126;5.596;2023-01-01T02:42:19;3.35;;;2.85;;
17564;SDS011;62994;52.126;5.596;2023-01-01T02:44:50;4.07;;;2.63;;
17564;SDS011;62994;52.126;5.596;2023-01-01T02:47:20;6.65;;;2.50;;
17564;SDS011;62994;52.126;5.596;2023-01-01T02:49:50;4.13;;;2.80;;
17564;SDS011;62994;52.126;5.596;2023-01-01T02:52:32;4.95;;;2.55;;
17564;SDS011;62994;52.126;5.596;2023-01-01T02:55:15;4.97;;;2.45;;
17564;SDS011;62994;52.126;5.596;2023-01-01T02:57:51;7.65;;;2.58;;
17564;SDS011;62994;52.126;5.596;2023-01-01T03:00:46;9.52;;;2.90;;
17564;SDS011;62994;52.126;5.596;2023-01-01T03:03:16;4.95;;;2.30;;
17564;SDS011;62994;52.126;5.596;2023-01-01T03:05:54;9.73;;;2.40;;
17564;SDS011;62994;52.126;5.596;2023-01-01T03:08:50;6.47;;;2.40;;
17564;SDS011;62994;52.126;5.596;2023-01-01T03:11:24;4.72;;;2.47;;
17564;SDS011;62994;52.126;5.596;2023-01-01T03:13:59;3.67;;;2.28;;
17564;SDS011;62994;52.126;5.596;2023-01-01T03:16:35;6.78;;;2.33;;
17564;SDS011;62994;52.126;5.596;2023-01-01T03:19:07;7.90;;;2.22;;
17564;SDS011;62994;52.126;5.596;2023-01-01T03:21:38;5.55;;;2.15;;
17564;SDS011;62994;52.126;5.596;2023-01-01T03:24:08;6.53;;;2.10;;
17564;SDS011;62994;52.126;5.596;2023-01-01T03:26:41;6.93;;;2.15;;
17564;SDS011;62994;52.126;5.596;2023-01-01T03:29:09;6.47;;;2.22;;
17564;SDS011;62994;52.126;5.596;2023-01-01T03:31:43;6.50;;;1.92;;
17564;SDS011;62994;52.126;5.596;2023-01-01T03:34:15;12.57;;;1.90;;
17564;SDS011;62994;52.126;5.596;2023-01-01T03:36:48;3.38;;;2.00;;
17564;SDS011;62994;52.126;5.596;2023-01-01T03:39:20;4.85;;;2.05;;
17564;SDS011;62994;52.126;5.596;2023-01-01T03:41:51;6.68;;;2.00;;
17564;SDS011;62994;52.126;5.596;2023-01-01T03:44:24;7.53;;;2.10;;
17564;SDS011;62994;52.126;5.596;2023-01-01T03:46:57;3.35;;;1.88;;
17564;SDS011;62994;52.126;5.596;2023-01-01T03:49:25;4.20;;;2.33;;
17564;SDS011;62994;52.126;5.596;2023-01-01T03:52:18;2.80;;;1.75;;
17564;SDS011;62994;52.126;5.596;2023-01-01T03:54:52;5.57;;;2.03;;
17564;SDS011;62994;52.126;5.596;2023-01-01T03:57:26;7.60;;;2.47;;
17564;SDS011;62994;52.126;5.596;2023-01-01T04:00:02;5.40;;;2.00;;
17564;SDS011;62994;52.126;5.596;2023-01-01T04:02:35;4.38;;;1.45;;
17564;SDS011;62994;52.126;5.596;2023-01-01T04:05:05;5.50;;;1.80;;
17564;SDS011;62994;52.126;5.596;2023-01-01T04:07:35;4.07;;;2.45;;
17564;SDS011;62994;52.126;5.596;2023-01-01T04:10:04;3.70;;;1.80;;
17564;SDS011;62994;52.126;5.596;2023-01-01T04:12:42;3.83;;;1.77;;
17564;SDS011;62994;52.126;5.596;2023-01-01T04:15:12;4.80;;;1.88;;
17564;SDS011;62994;52.126;5.596;2023-01-01T04:17:41;8.30;;;2.05;;
17564;SDS011;62994;52.126;5.596;2023-01-01T04:20:08;2.15;;;1.50;;
17564;SDS011;62994;52.126;5.596;2023-01-01T04:22:36;4.28;;;2.00;;
17564;SDS011;62994;52.126;5.596;2023-01-01T04:25:04;6.10;;;1.77;;
17564;SDS011;62994;52.126;5.596;2023-01-01T04:27:35;3.97;;;1.85;;
17564;SDS011;62994;52.126;5.596;2023-01-01T04:30:02;3.28;;;2.05;;
17564;SDS011;62994;52.126;5.596;2023-01-01T04:32:30;2.97;;;2.00;;
17564;SDS011;62994;52.126;5.596;2023-01-01T04:34:58;5.03;;;2.30;;
17564;SDS011;62994;52.126;5.596;2023-01-01T04:37:25;5.15;;;2.00;;
17564;SDS011;62994;52.126;5.596;2023-01-01T04:39:54;4.13;;;1.88;;
17564;SDS011;62994;52.126;5.596;2023-01-01T04:42:21;3.88;;;1.95;;
17564;SDS011;62994;52.126;5.596;2023-01-01T04:44:54;3.45;;;2.10;;
17564;SDS011;62994;52.126;5.596;2023-01-01T04:47:21;5.22;;;2.13;;
17564;SDS011;62994;52.126;5.596;2023-01-01T04:49:48;6.10;;;1.83;;
17564;SDS011;62994;52.126;5.596;2023-01-01T04:52:16;3.58;;;2.28;;
17564;SDS011;62994;52.126;5.596;2023-01-01T04:54:43;4.45;;;2.03;;
17564;SDS011;62994;52.126;5.596;2023-01-01T04:57:11;2.10;;;1.90;;
17564;SDS011;62994;52.126;5.596;2023-01-01T04:59:40;4.50;;;2.08;;
17564;SDS011;62994;52.126;5.596;2023-01-01T05:02:07;5.60;;;2.40;;
17564;SDS011;62994;52.126;5.596;2023-01-01T05:04:41;3.22;;;1.85;;
17564;SDS011;62994;52.126;5.596;2023-01-01T05:07:07;5.80;;;2.08;;
17564;SDS011;62994;52.126;5.596;2023-01-01T05:09:40;4.82;;;1.83;;
17564;SDS011;62994;52.126;5.596;2023-01-01T05:12:07;4.57;;;2.03;;
17564;SDS011;62994;52.126;5.596;2023-01-01T05:14:34;4.13;;;2.08;;
17564;SDS011;62994;52.126;5.596;2023-01-01T05:17:01;2.03;;;1.33;;
17564;SDS011;62994;52.126;5.596;2023-01-01T05:19:28;5.00;;;1.90;;
17564;SDS011;62994;52.126;5.596;2023-01-01T05:21:55;3.65;;;1.52;;
17564;SDS011;62994;52.126;5.596;2023-01-01T05:24:22;4.43;;;1.65;;
17564;SDS011;62994;52.126;5.596;2023-01-01T05:26:50;4.15;;;2.03;;
17564;SDS011;62994;52.126;5.596;2023-01-01T05:29:18;3.30;;;1.52;;
17564;SDS011;62994;52.126;5.596;2023-01-01T05:31:46;5.60;;;1.83;;
17564;SDS011;62994;52.126;5.596;2023-01-01T05:34:13;3.60;;;1.60;;
17564;SDS011;62994;52.126;5.596;2023-01-01T05:36:40;6.75;;;1.65;;
17564;SDS011;62994;52.126;5.596;2023-01-01T05:39:07;2.75;;;1.50;;
17564;SDS011;62994;52.126;5.596;2023-01-01T05:41:36;3.47;;;1.48;;
17564;SDS011;62994;52.126;5.596;2023-01-01T05:44:09;4.60;;;1.50;;
17564;SDS011;62994;52.126;5.596;2023-01-01T05:46:36;2.67;;;1.50;;
17564;SDS011;62994;52.126;5.596;2023-01-01T05:49:05;4.70;;;1.40;;
17564;SDS011;62994;52.126;5.596;2023-01-01T05:51:35;5.15;;;1.80;;
17564;SDS011;62994;52.126;5.596;2023-01-01T05:54:02;3.58;;;1.42;;
17564;SDS011;62994;52.126;5.596;2023-01-01T05:56:30;4.05;;;1.50;;
17564;SDS011;62994;52.126;5.596;2023-01-01T05:58:57;2.65;;;1.55;;
17564;SDS011;62994;52.126;5.596;2023-01-01T06:01:26;1.15;;;1.05;;
17564;SDS011;62994;52.126;5.596;2023-01-01T06:03:54;4.20;;;1.23;;
17564;SDS011;62994;52.126;5.596;2023-01-01T06:06:23;3.92;;;1.20;;
17564;SDS011;62994;52.126;5.596;2023-01-01T06:08:55;6.07;;;1.10;;
17564;SDS011;62994;52.126;5.596;2023-01-01T06:11:23;2.55;;;1.00;;
17564;SDS011;62994;52.126;5.596;2023-01-01T06:13:51;2.53;;;1.20;;
17564;SDS011;62994;52.126;5.596;2023-01-01T06:16:22;1.98;;;1.15;;
17564;SDS011;62994;52.126;5.596;2023-01-01T06:18:51;1.52;;;1.00;;
17564;SDS011;62994;52.126;5.596;2023-01-01T06:21:18;2.55;;;1.30;;
17564;SDS011;62994;52.126;5.596;2023-01-01T06:23:46;4.63;;;1.38;;
17564;SDS011;62994;52.126;5.596;2023-01-01T06:26:19;2.83;;;1.30;;
17564;SDS011;62994;52.126;5.596;2023-01-01T06:28:46;1.92;;;1.15;;
17564;SDS011;62994;52.126;5.596;2023-01-01T06:31:14;2.00;;;1.70;;
17564;SDS011;62994;52.126;5.596;2023-01-01T06:33:43;1.85;;;1.00;;
17564;SDS011;62994;52.126;5.596;2023-01-01T06:36:13;4.63;;;1.10;;
17564;SDS011;62994;52.126;5.596;2023-01-01T06:38:42;2.40;;;1.00;;
17564;SDS011;62994;52.126;5.596;2023-01-01T06:41:12;3.95;;;1.23;;
17564;SDS011;62994;52.126;5.596;2023-01-01T06:43:46;1.90;;;1.10;;
17564;SDS011;62994;52.126;5.596;2023-01-01T06:46:14;4.32;;;1.25;;
17564;SDS011;62994;52.126;5.596;2023-01-01T06:48:43;4.30;;;1.30;;
17564;SDS011;62994;52.126;5.596;2023-01-01T06:51:19;6.97;;;1.95;;
17564;SDS011;62994;52.126;5.596;2023-01-01T06:53:47;1.70;;;1.20;;
17564;SDS011;62994;52.126;5.596;2023-01-01T06:56:15;1.98;;;1.10;;
17564;SDS011;62994;52.126;5.596;2023-01-01T06:58:51;1.70;;;0.90;;
17564;SDS011;62994;52.126;5.596;2023-01-01T07:01:25;1.90;;;0.90;;
17564;SDS011;62994;52.126;5.596;2023-01-01T07:03:53;1.98;;;0.85;;
17564;SDS011;62994;52.126;5.596;2023-01-01T07:06:25;2.45;;;1.00;;
17564;SDS011;62994;52.126;5.596;2023-01-01T07:08:56;2.03;;;0.90;;
17564;SDS011;62994;52.126;5.596;2023-01-01T07:11:23;3.92;;;1.00;;
17564;SDS011;62994;52.126;5.596;2023-01-01T07:13:51;1.40;;;0.82;;
17564;SDS011;62994;52.126;5.596;2023-01-01T07:16:21;1.95;;;1.10;;
17564;SDS011;62994;52.126;5.596;2023-01-01T07:18:49;4.00;;;1.02;;
17564;SDS011;62994;52.126;5.596;2023-01-01T07:21:27;3.85;;;1.23;;
17564;SDS011;62994;52.126;5.596;2023-01-01T07:23:57;5.30;;;1.05;;
17564;SDS011;62994;52.126;5.596;2023-01-01T07:26:26;3.60;;;1.17;;
17564;SDS011;62994;52.126;5.596;2023-01-01T07:28:54;2.80;;;1.10;;
17564;SDS011;62994;52.126;5.596;2023-01-01T07:31:21;3.08;;;1.15;;
17564;SDS011;62994;52.126;5.596;2023-01-01T07:33:50;4.28;;;1.10;;
17564;SDS011;62994;52.126;5.596;2023-01-01T07:36:17;4.50;;;1.10;;
17564;SDS011;62994;52.126;5.596;2023-01-01T07:38:45;1.55;;;0.88;;
17564;SDS011;62994;52.126;5.596;2023-01-01T07:41:12;2.70;;;0.90;;
17564;SDS011;62994;52.126;5.596;2023-01-01T07:43:44;2.25;;;1.17;;
17564;SDS011;62994;52.126;5.596;2023-01-01T07:46:12;2.80;;;1.05;;
17564;SDS011;62994;52.126;5.596;2023-01-01T07:48:42;1.70;;;0.80;;
17564;SDS011;62994;52.126;5.596;2023-01-01T07:51:10;2.92;;;1.17;;
17564;SDS011;62994;52.126;5.596;2023-01-01T07:53:39;1.80;;;0.82;;
17564;SDS011;62994;52.126;5.596;2023-01-01T07:56:07;2.45;;;1.05;;
17564;SDS011;62994;52.126;5.596;2023-01-01T07:58:38;7.60;;;1.70;;
17564;SDS011;62994;52.126;5.596;2023-01-01T08:01:05;1.45;;;0.95;;
17564;SDS011;62994;52.126;5.596;2023-01-01T08:03:34;5.25;;;1.00;;
17564;SDS011;62994;52.126;5.596;2023-01-01T08:06:04;3.97;;;1.50;;
17564;SDS011;62994;52.126;5.596;2023-01-01T08:08:32;2.63;;;0.95;;
17564;SDS011;62994;52.126;5.596;2023-01-01T08:10:59;1.17;;;1.00;;
17564;SDS011;62994;52.126;5.596;2023-01-01T08:13:28;4.20;;;1.10;;
17564;SDS011;62994;52.126;5.596;2023-01-01T08:15:56;2.13;;;0.98;;
17564;SDS011;62994;52.126;5.596;2023-01-01T08:18:23;0.90;;;0.70;;
17564;SDS011;62994;52.126;5.596;2023-01-01T08:20:50;5.38;;;1.15;;
17564;SDS011;62994;52.126;5.596;2023-01-01T08:23:17;0.85;;;0.60;;
17564;SDS011;62994;52.126;5.596;2023-01-01T08:25:44;1.40;;;0.80;;
17564;SDS011;62994;52.126;5.596;2023-01-01T08:28:11;3.65;;;0.93;;
17564;SDS011;62994;52.126;5.596;2023-01-01T08:30:42;5.03;;;0.80;;
17564;SDS011;62994;52.126;5.596;2023-01-01T08:33:09;3.28;;;0.95;;
17564;SDS011;62994;52.126;5.596;2023-01-01T08:35:36;2.70;;;0.95;;
17564;SDS011;62994;52.126;5.596;2023-01-01T08:38:07;3.33;;;1.02;;
17564;SDS011;62994;52.126;5.596;2023-01-01T08:40:36;1.88;;;1.23;;
17564;SDS011;62994;52.126;5.596;2023-01-01T08:43:03;5.22;;;1.58;;
17564;SDS011;62994;52.126;5.596;2023-01-01T08:45:30;8.90;;;1.45;;
17564;SDS011;62994;52.126;5.596;2023-01-01T08:48:02;4.07;;;1.27;;
17564;SDS011;62994;52.126;5.596;2023-01-01T08:50:31;5.43;;;1.15;;
17564;SDS011;62994;52.126;5.596;2023-01-01T08:52:59;4.97;;;1.08;;
17564;SDS011;62994;52.126;5.596;2023-01-01T08:55:26;5.15;;;1.42;;
17564;SDS011;62994;52.126;5.596;2023-01-01T08:57:53;2.80;;;1.10;;
17564;SDS011;62994;52.126;5.596;2023-01-01T09:00:23;3.13;;;1.42;;
17564;SDS011;62994;52.126;5.596;2023-01-01T09:02:50;2.70;;;0.90;;
17564;SDS011;62994;52.126;5.596;2023-01-01T09:05:18;5.13;;;1.42;;
17564;SDS011;62994;52.126;5.596;2023-01-01T09:07:45;3.22;;;1.42;;
17564;SDS011;62994;52.126;5.596;2023-01-01T09:10:14;2.78;;;1.05;;
17564;SDS011;62994;52.126;5.596;2023-01-01T09:12:41;2.78;;;1.20;;
17564;SDS011;62994;52.126;5.596;2023-01-01T09:15:13;4.03;;;1.17;;
17564;SDS011;62994;52.126;5.596;2023-01-01T09:17:41;4.45;;;1.50;;
17564;SDS011;62994;52.126;5.596;2023-01-01T09:20:13;1.85;;;1.00;;
17564;SDS011;62994;52.126;5.596;2023-01-01T09:22:41;3.85;;;1.33;;
17564;SDS011;62994;52.126;5.596;2023-01-01T09:25:09;7.95;;;1.55;;
17564;SDS011;62994;52.126;5.596;2023-01-01T09:27:35;4.10;;;1.10;;
17564;SDS011;62994;52.126;5.596;2023-01-01T09:30:07;3.92;;;1.10;;
17564;SDS011;62994;52.126;5.596;2023-01-01T09:32:35;3.33;;;1.40;;
17564;SDS011;62994;52.126;5.596;2023-01-01T09:35:02;5.65;;;1.30;;
17564;SDS011;62994;52.126;5.596;2023-01-01T09:37:30;4.13;;;1.80;;
17564;SDS011;62994;52.126;5.596;2023-01-01T09:39:59;6.63;;;1.38;;
17564;SDS011;62994;52.126;5.596;2023-01-01T09:42:29;4.32;;;1.42;;
17564;SDS011;62994;52.126;5.596;2023-01-01T09:45:06;6.40;;;1.30;;
17564;SDS011;62994;52.126;5.596;2023-01-01T09:47:45;3.70;;;1.30;;
17564;SDS011;62994;52.126;5.596;2023-01-01T09:50:17;2.67;;;1.60;;
17564;SDS011;62994;52.126;5.596;2023-01-01T09:52:49;4.32;;;1.35;;
17564;SDS011;62994;52.126;5.596;2023-01-01T09:55:23;4.05;;;1.30;;
17564;SDS011;62994;52.126;5.596;2023-01-01T09:57:53;5.63;;;1.38;;
17564;SDS011;62994;52.126;5.596;2023-01-01T10:00:21;6.05;;;1.40;;
17564;SDS011;62994;52.126;5.596;2023-01-01T10:03:01;7.88;;;1.30;;
17564;SDS011;62994;52.126;5.596;2023-01-01T10:05:41;3.97;;;1.35;;
17564;SDS011;62994;52.126;5.596;2023-01-01T10:08:16;2.83;;;1.40;;
17564;SDS011;62994;52.126;5.596;2023-01-01T10:10:58;5.10;;;1.65;;
17564;SDS011;62994;52.126;5.596;2023-01-01T10:13:33;2.55;;;1.30;;
17564;SDS011;62994;52.126;5.596;2023-01-01T10:16:07;2.53;;;1.20;;
17564;SDS011;62994;52.126;5.596;2023-01-01T10:18:44;4.18;;;1.67;;
17564;SDS011;62994;52.126;5.596;2023-01-01T10:21:16;5.32;;;1.65;;
17564;SDS011;62994;52.126;5.596;2023-01-01T10:23:47;3.78;;;1.60;;
17564;SDS011;62994;52.126;5.596;2023-01-01T10:26:21;4.13;;;1.73;;
17564;SDS011;62994;52.126;5.596;2023-01-01T10:28:54;8.25;;;1.83;;
17564;SDS011;62994;52.126;5.596;2023-01-01T10:31:28;6.22;;;1.90;;
17564;SDS011;62994;52.126;5.596;2023-01-01T10:33:57;5.63;;;2.10;;
17564;SDS011;62994;52.126;5.596;2023-01-01T10:36:37;4.00;;;1.70;;
17564;SDS011;62994;52.126;5.596;2023-01-01T10:39:04;3.60;;;1.80;;
17564;SDS011;62994;52.126;5.596;2023-01-01T10:41:35;7.65;;;1.50;;
17564;SDS011;62994;52.126;5.596;2023-01-01T10:44:02;8.55;;;2.05;;
17564;SDS011;62994;52.126;5.596;2023-01-01T10:46:31;8.32;;;2.42;;
17564;SDS011;62994;52.126;5.596;2023-01-01T10:49:04;5.07;;;2.00;;
17564;SDS011;62994;52.126;5.596;2023-01-01T10:51:35;5.28;;;1.95;;
17564;SDS011;62994;52.126;5.596;2023-01-01T10:54:04;3.90;;;1.60;;
17564;SDS011;62994;52.126;5.596;2023-01-01T10:56:51;7.18;;;1.95;;
17564;SDS011;62994;52.126;5.596;2023-01-01T10:59:32;7.28;;;2.25;;
17564;SDS011;62994;52.126;5.596;2023-01-01T11:02:13;3.47;;;1.77;;
17564;SDS011;62994;52.126;5.596;2023-01-01T11:04:43;3.53;;;2.13;;
17564;SDS011;62994;52.126;5.596;2023-01-01T11:07:13;5.40;;;1.90;;
17564;SDS011;62994;52.126;5.596;2023-01-01T11:09:52;6.00;;;2.30;;
17564;SDS011;62994;52.126;5.596;2023-01-01T11:12:26;3.28;;;1.60;;
17564;SDS011;62994;52.126;5.596;2023-01-01T11:14:56;7.28;;;1.95;;
17564;SDS011;62994;52.126;5.596;2023-01-01T11:17:25;4.60;;;2.30;;
17564;SDS011;62994;52.126;5.596;2023-01-01T11:19:53;4.05;;;1.65;;
17564;SDS011;62994;52.126;5.596;2023-01-01T11:22:36;9.43;;;1.90;;
17564;SDS011;62994;52.126;5.596;2023-01-01T11:25:15;5.40;;;1.77;;
17564;SDS011;62994;52.126;5.596;2023-01-01T11:27:45;4.90;;;2.08;;
17564;SDS011;62994;52.126;5.596;2023-01-01T11:30:18;6.47;;;2.08;;
17564;SDS011;62994;52.126;5.596;2023-01-01T11:32:48;6.78;;;2.17;;
17564;SDS011;62994;52.126;5.596;2023-01-01T11:35:18;6.13;;;1.85;;
17564;SDS011;62994;52.126;5.596;2023-01-01T11:37:47;8.27;;;2.17;;
17564;SDS011;62994;52.126;5.596;2023-01-01T11:40:17;7.38;;;2.33;;
17564;SDS011;62994;52.126;5.596;2023-01-01T11:42:49;7.72;;;2.30;;
17564;SDS011;62994;52.126;5.596;2023-01-01T11:45:19;7.95;;;2.17;;
17564;SDS011;62994;52.126;5.596;2023-01-01T11:47:54;3.00;;;2.03;;
17564;SDS011;62994;52.126;5.596;2023-01-01T11:50:25;4.35;;;2.03;;
17564;SDS011;62994;52.126;5.596;2023-01-01T11:52:55;3.50;;;2.00;;
17564;SDS011;62994;52.126;5.596;2023-01-01T11:55:41;5.35;;;2.05;;
17564;SDS011;62994;52.126;5.596;2023-01-01T11:58:13;6.85;;;2.33;;
17564;SDS011;62994;52.126;5.596;2023-01-01T12:00:42;7.45;;;1.75;;
17564;SDS011;62994;52.126;5.596;2023-01-01T12:03:15;7.32;;;2.15;;
17564;SDS011;62994;52.126;5.596;2023-01-01T12:05:51;6.20;;;2.30;;
17564;SDS011;62994;52.126;5.596;2023-01-01T12:08:25;5.82;;;2.35;;
17564;SDS011;62994;52.126;5.596;2023-01-01T12:10:58;7.10;;;2.65;;
17564;SDS011;62994;52.126;5.596;2023-01-01T12:13:37;8.95;;;2.42;;
17564;SDS011;62994;52.126;5.596;2023-01-01T12:16:11;5.10;;;2.10;;
17564;SDS011;62994;52.126;5.596;2023-01-01T12:18:44;8.10;;;2.90;;
17564;SDS011;62994;52.126;5.596;2023-01-01T12:21:17;8.13;;;2.38;;
17564;SDS011;62994;52.126;5.596;2023-01-01T12:23:48;4.55;;;2.35;;
17564;SDS011;62994;52.126;5.596;2023-01-01T12:26:21;6.85;;;2.33;;
17564;SDS011;62994;52.126;5.596;2023-01-01T12:31:42;6.63;;;2.50;;
17564;SDS011;62994;52.126;5.596;2023-01-01T12:34:16;9.90;;;3.10;;
17564;SDS011;62994;52.126;5.596;2023-01-01T12:36:51;6.55;;;2.42;;
17564;SDS011;62994;52.126;5.596;2023-01-01T12:42:36;6.10;;;2.35;;
17564;SDS011;62994;52.126;5.596;2023-01-01T12:45:19;6.15;;;2.65;;
17564;SDS011;62994;52.126;5.596;2023-01-01T12:48:18;8.38;;;2.33;;
17564;SDS011;62994;52.126;5.596;2023-01-01T12:51:04;12.95;;;2.97;;
17564;SDS011;62994;52.126;5.596;2023-01-01T12:53:39;4.80;;;2.60;;
17564;SDS011;62994;52.126;5.596;2023-01-01T12:56:15;10.65;;;2.78;;
17564;SDS011;62994;52.126;5.596;2023-01-01T12:58:55;5.75;;;2.70;;
17564;SDS011;62994;52.126;5.596;2023-01-01T13:01:27;10.38;;;3.13;;
17564;SDS011;62994;52.126;5.596;2023-01-01T13:03:57;8.00;;;2.92;;
17564;SDS011;62994;52.126;5.596;2023-01-01T13:06:27;5.65;;;2.20;;
17564;SDS011;62994;52.126;5.596;2023-01-01T13:09:01;6.43;;;2.50;;
17564;SDS011;62994;52.126;5.596;2023-01-01T13:11:34;7.05;;;2.78;;
17564;SDS011;62994;52.126;5.596;2023-01-01T13:14:02;4.07;;;2.65;;
17564;SDS011;62994;52.126;5.596;2023-01-01T13:16:34;11.50;;;3.15;;
17564;SDS011;62994;52.126;5.596;2023-01-01T13:19:05;5.47;;;2.65;;
17564;SDS011;62994;52.126;5.596;2023-01-01T13:21:47;5.78;;;2.70;;
17564;SDS011;62994;52.126;5.596;2023-01-01T13:24:18;10.13;;;2.53;;
17564;SDS011;62994;52.126;5.596;2023-01-01T13:26:47;6.85;;;2.70;;
17564;SDS011;62994;52.126;5.596;2023-01-01T13:32:08;14.48;;;3.58;;
17564;SDS011;62994;52.126;5.596;2023-01-01T13:37:45;7.78;;;3.08;;
17564;SDS011;62994;52.126;5.596;2023-01-01T13:40:38;7.22;;;2.30;;
17564;SDS011;62994;52.126;5.596;2023-01-01T13:43:17;7.57;;;2.38;;
17564;SDS011;62994;52.126;5.596;2023-01-01T13:45:53;5.35;;;2.45;;
17564;SDS011;62994;52.126;5.596;2023-01-01T13:48:30;9.57;;;2.88;;
17564;SDS011;62994;52.126;5.596;2023-01-01T13:51:29;8.85;;;1.92;;
17564;SDS011;62994;52.126;5.596;2023-01-01T13:57:06;8.65;;;2.30;;
17564;SDS011;62994;52.126;5.596;2023-01-01T13:59:52;11.57;;;2.78;;
17564;SDS011;62994;52.126;5.596;2023-01-01T14:02:47;4.47;;;2.10;;
17564;SDS011;62994;52.126;5.596;2023-01-01T14:05:26;12.55;;;3.28;;
17564;SDS011;62994;52.126;5.596;2023-01-01T14:07:55;10.85;;;2.85;;
17564;SDS011;62994;52.126;5.596;2023-01-01T14:10:24;9.18;;;2.22;;
17564;SDS011;62994;52.126;5.596;2023-01-01T14:12:53;11.20;;;2.67;;
17564;SDS011;62994;52.126;5.596;2023-01-01T14:15:23;12.63;;;2.80;;
17564;SDS011;62994;52.126;5.596;2023-01-01T14:17:52;5.47;;;2.33;;
17564;SDS011;62994;52.126;5.596;2023-01-01T14:20:22;8.95;;;3.53;;
17564;SDS011;62994;52.126;5.596;2023-01-01T14:23:03;10.85;;;3.30;;
17564;SDS011;62994;52.126;5.596;2023-01-01T14:25:34;7.65;;;3.28;;
17564;SDS011;62994;52.126;5.596;2023-01-01T14:28:01;6.22;;;2.85;;
17564;SDS011;62994;52.126;5.596;2023-01-01T14:30:35;8.13;;;2.55;;
17564;SDS011;62994;52.126;5.596;2023-01-01T14:33:02;8.07;;;3.22;;
17564;SDS011;62994;52.126;5.596;2023-01-01T14:35:35;7.60;;;2.47;;
17564;SDS011;62994;52.126;5.596;2023-01-01T14:38:15;7.40;;;2.38;;
17564;SDS011;62994;52.126;5.596;2023-01-01T14:40:42;7.00;;;2.60;;
17564;SDS011;62994;52.126;5.596;2023-01-01T14:43:09;5.22;;;2.30;;
17564;SDS011;62994;52.126;5.596;2023-01-01T14:45:40;6.85;;;2.50;;
17564;SDS011;62994;52.126;5.596;2023-01-01T14:48:10;7.63;;;2.42;;
17564;SDS011;62994;52.126;5.596;2023-01-01T14:50:46;5.10;;;2.17;;
17564;SDS011;62994;52.126;5.596;2023-01-01T14:53:15;10.57;;;2.15;;
17564;SDS011;62994;52.126;5.596;2023-01-01T14:55:46;3.97;;;2.30;;
17564;SDS011;62994;52.126;5.596;2023-01-01T14:58:20;8.48;;;2.95;;
17564;SDS011;62994;52.126;5.596;2023-01-01T15:00:50;7.95;;;2.40;;
17564;SDS011;62994;52.126;5.596;2023-01-01T15:03:19;5.30;;;2.60;;
17564;SDS011;62994;52.126;5.596;2023-01-01T15:05:57;5.25;;;2.53;;
17564;SDS011;62994;52.126;5.596;2023-01-01T15:08:25;7.95;;;3.03;;
17564;SDS011;62994;52.126;5.596;2023-01-01T15:10:54;13.50;;;3.00;;
17564;SDS011;62994;52.126;5.596;2023-01-01T15:13:22;6.28;;;2.63;;
17564;SDS011;62994;52.126;5.596;2023-01-01T15:15:51;8.88;;;2.90;;
17564;SDS011;62994;52.126;5.596;2023-01-01T15:18:38;11.07;;;3.22;;
17564;SDS011;62994;52.126;5.596;2023-01-01T15:21:10;7.65;;;2.63;;
17564;SDS011;62994;52.126;5.596;2023-01-01T15:23:44;5.85;;;2.90;;
17564;SDS011;62994;52.126;5.596;2023-01-01T15:26:20;8.85;;;3.45;;